createdAt,value
2019-01-11T00:01:54.379Z,10.23
2019-01-11T00:04:21.730Z,10.35
2019-01-11T00:06:49.055Z,10.55
2019-01-11T00:09:18.256Z,10.25
2019-01-11T00:11:45.703Z,11.33
2019-01-11T00:14:13.076Z,10.90
2019-01-11T00:16:40.527Z,10.70
2019-01-11T00:19:08.060Z,11.43
2019-01-11T00:21:35.730Z,10.88
2019-01-11T00:24:04.266Z,11.83
2019-01-11T00:26:31.755Z,9.95
2019-01-11T00:28:59.218Z,10.43
2019-01-11T00:31:26.581Z,11.68
2019-01-11T00:33:53.915Z,11.00
2019-01-11T00:36:21.376Z,11.60
2019-01-11T00:38:48.688Z,11.22
2019-01-11T00:41:16.044Z,11.88
2019-01-11T00:43:43.468Z,11.38
2019-01-11T00:46:10.803Z,11.50
2019-01-11T00:48:38.047Z,11.28
2019-01-11T00:51:05.385Z,10.72
2019-01-11T00:53:32.781Z,11.45
2019-01-11T00:56:00.096Z,12.05
2019-01-11T00:58:27.422Z,12.40
2019-01-11T01:00:54.783Z,11.83
2019-01-11T01:03:22.172Z,12.45
2019-01-11T01:05:49.691Z,11.68
2019-01-11T01:08:17.008Z,11.35
2019-01-11T01:10:44.320Z,12.05
2019-01-11T01:13:11.632Z,11.53
2019-01-11T01:15:38.958Z,11.73
2019-01-11T01:18:09.120Z,11.68
2019-01-11T01:20:36.460Z,11.83
2019-01-11T01:23:03.797Z,11.20
2019-01-11T01:25:31.442Z,11.97
2019-01-11T01:27:58.640Z,13.80
2019-01-11T01:30:25.957Z,11.55
2019-01-11T01:32:53.341Z,11.73
2019-01-11T01:35:20.815Z,13.00
2019-01-11T01:37:48.032Z,12.03
2019-01-11T01:40:16.475Z,11.78
2019-01-11T01:42:43.820Z,12.85
2019-01-11T01:45:13.112Z,13.30
2019-01-11T01:47:40.477Z,13.58
2019-01-11T01:50:08.299Z,12.65
2019-01-11T01:52:35.541Z,13.28
2019-01-11T01:55:03.251Z,12.58
2019-01-11T01:57:30.587Z,13.85
2019-01-11T01:59:57.821Z,13.40
2019-01-11T02:02:25.112Z,13.53
2019-01-11T02:04:52.495Z,14.55
2019-01-11T02:07:19.850Z,15.23
2019-01-11T02:09:47.036Z,15.23
2019-01-11T02:12:14.389Z,15.60
2019-01-11T02:14:41.949Z,16.27
2019-01-11T02:17:10.148Z,18.30
2019-01-11T02:19:37.341Z,17.60
2019-01-11T02:22:04.909Z,16.20
2019-01-11T02:24:32.275Z,16.95
2019-01-11T02:26:59.584Z,17.40
2019-01-11T02:29:26.828Z,17.02
2019-01-11T02:31:54.154Z,17.05
2019-01-11T02:34:21.349Z,17.62
2019-01-11T02:36:48.748Z,18.65
2019-01-11T02:39:16.129Z,17.42
2019-01-11T02:41:43.375Z,17.98
2019-01-11T02:44:10.700Z,19.30
2019-01-11T02:46:37.936Z,18.37
2019-01-11T02:49:05.115Z,19.77
2019-01-11T02:51:33.531Z,18.98
2019-01-11T02:54:00.837Z,19.57
2019-01-11T02:56:28.212Z,20.95
2019-01-11T02:58:55.553Z,21.17
2019-01-11T03:01:22.860Z,22.07
2019-01-11T03:03:51.198Z,23.22
2019-01-11T03:06:18.536Z,22.32
2019-01-11T03:08:45.868Z,22.98
2019-01-11T03:11:13.060Z,23.87
2019-01-11T03:13:40.336Z,25.27
2019-01-11T03:16:07.684Z,24.57
2019-01-11T03:18:34.892Z,24.57
2019-01-11T03:21:02.124Z,23.40
2019-01-11T03:23:29.489Z,24.98
2019-01-11T03:25:56.697Z,26.15
2019-01-11T03:28:23.993Z,27.62
2019-01-11T03:30:51.321Z,29.12
2019-01-11T03:33:18.671Z,31.12
2019-01-11T03:35:46.316Z,31.15
2019-01-11T03:38:13.635Z,33.40
2019-01-11T03:40:40.960Z,34.98
2019-01-11T03:43:08.281Z,30.35
2019-01-11T03:45:35.637Z,35.25
2019-01-11T03:48:03.151Z,36.25
2019-01-11T03:50:30.500Z,41.02
2019-01-11T03:52:57.813Z,40.63
2019-01-11T03:55:25.147Z,39.98
2019-01-11T03:57:52.358Z,38.98
2019-01-11T04:00:21.588Z,35.52
2019-01-11T04:02:49.124Z,37.20
2019-01-11T04:05:16.570Z,35.15
2019-01-11T04:07:43.897Z,32.42
2019-01-11T04:10:18.972Z,34.48
2019-01-11T04:12:46.395Z,34.75
2019-01-11T04:15:15.004Z,31.73
2019-01-11T04:17:42.256Z,30.72
2019-01-11T04:20:12.786Z,29.77
2019-01-11T04:22:45.883Z,29.10
2019-01-11T04:25:18.381Z,30.10
2019-01-11T04:27:45.726Z,29.55
2019-01-11T04:30:15.889Z,30.48
2019-01-11T04:32:43.197Z,30.12
2019-01-11T04:35:10.501Z,31.17
2019-01-11T04:37:39.701Z,29.45
2019-01-11T04:40:07.097Z,28.70
2019-01-11T04:42:34.313Z,28.02
2019-01-11T04:45:01.649Z,27.42
2019-01-11T04:47:29.011Z,28.77
2019-01-11T04:49:56.262Z,27.10
2019-01-11T04:52:23.627Z,29.30
2019-01-11T04:54:50.979Z,28.85
2019-01-11T04:57:18.192Z,28.15
2019-01-11T04:59:45.508Z,28.15
2019-01-11T05:02:13.170Z,27.95
2019-01-11T05:04:40.719Z,26.90
2019-01-11T05:07:08.114Z,27.48
2019-01-11T05:09:35.641Z,29.45
2019-01-11T05:12:02.932Z,28.00
2019-01-11T05:14:30.281Z,27.48
2019-01-11T05:16:57.719Z,28.62
2019-01-11T05:19:25.097Z,26.02
2019-01-11T05:21:52.361Z,28.30
2019-01-11T05:24:19.706Z,29.98
2019-01-11T05:26:47.195Z,31.77
2019-01-11T05:29:14.799Z,28.87
2019-01-11T05:31:42.181Z,29.23
2019-01-11T05:34:09.375Z,28.98
2019-01-11T05:36:36.619Z,29.48
2019-01-11T05:39:06.741Z,30.15
2019-01-11T05:41:34.227Z,30.95
2019-01-11T05:44:01.686Z,33.20
2019-01-11T05:46:29.078Z,35.20
2019-01-11T05:48:56.364Z,32.50
2019-01-11T05:51:23.603Z,31.15
2019-01-11T05:53:50.980Z,33.05
2019-01-11T05:56:19.564Z,31.23
2019-01-11T05:58:51.289Z,31.97
2019-01-11T06:01:18.647Z,32.80
2019-01-11T06:03:46.049Z,35.10
2019-01-11T06:06:13.379Z,34.55
2019-01-11T06:08:41.115Z,34.05
2019-01-11T06:11:08.440Z,36.70
2019-01-11T06:13:35.768Z,36.73
2019-01-11T06:16:03.831Z,37.60
2019-01-11T06:18:31.161Z,38.20
2019-01-11T06:20:58.383Z,36.75
2019-01-11T06:23:25.577Z,36.80
2019-01-11T06:25:53.160Z,36.88
2019-01-11T06:28:20.429Z,36.25
2019-01-11T06:30:47.807Z,37.33
2019-01-11T06:33:15.124Z,39.38
2019-01-11T06:35:42.911Z,37.95
2019-01-11T06:38:10.227Z,42.03
2019-01-11T06:40:37.459Z,40.08
2019-01-11T06:43:04.804Z,40.28
2019-01-11T06:45:33.933Z,40.78
2019-01-11T06:48:01.357Z,39.63
2019-01-11T06:50:28.611Z,39.50
2019-01-11T06:52:56.069Z,40.17
2019-01-11T06:55:23.397Z,39.35
2019-01-11T06:57:50.605Z,38.73
2019-01-11T07:00:18.130Z,39.20
2019-01-11T07:02:45.486Z,42.75
2019-01-11T07:05:12.791Z,41.53
2019-01-11T07:07:40.001Z,40.60
2019-01-11T07:10:11.085Z,43.28
2019-01-11T07:12:38.445Z,40.80
2019-01-11T07:15:06.584Z,41.20
2019-01-11T07:17:33.826Z,38.20
2019-01-11T07:20:05.551Z,39.67
2019-01-11T07:22:30.249Z,41.73
2019-01-11T07:24:57.442Z,40.80
2019-01-11T07:27:25.465Z,39.75
2019-01-11T07:29:52.782Z,39.48
2019-01-11T07:32:20.901Z,40.33
2019-01-11T07:34:50.624Z,38.80
2019-01-11T07:37:17.856Z,38.23
2019-01-11T07:39:45.173Z,41.90
2019-01-11T07:42:12.473Z,40.85
2019-01-11T07:44:39.820Z,39.25
2019-01-11T07:47:07.257Z,40.25
2019-01-11T07:49:34.575Z,40.80
2019-01-11T07:52:01.944Z,39.85
2019-01-11T07:54:29.315Z,42.23
2019-01-11T07:56:57.477Z,40.30
2019-01-11T07:59:24.693Z,39.67
2019-01-11T08:01:51.885Z,41.28
2019-01-11T08:04:19.097Z,39.78
2019-01-11T08:06:46.548Z,38.00
2019-01-11T08:09:13.862Z,39.73
2019-01-11T08:11:41.179Z,41.05
2019-01-11T08:14:08.646Z,41.80
2019-01-11T08:16:35.865Z,40.65
2019-01-11T08:19:03.190Z,40.83
2019-01-11T08:21:30.565Z,38.30
2019-01-11T08:23:58.090Z,37.55
2019-01-11T08:26:25.284Z,38.67
2019-01-11T08:28:52.605Z,37.33
2019-01-11T08:31:19.937Z,38.53
2019-01-11T08:33:47.141Z,39.65
2019-01-11T08:36:14.708Z,39.03
2019-01-11T08:38:42.064Z,36.70
2019-01-11T08:41:09.507Z,37.95
2019-01-11T08:43:36.804Z,38.42
2019-01-11T08:46:04.054Z,37.33
2019-01-11T08:48:31.422Z,35.45
2019-01-11T08:51:02.606Z,37.45
2019-01-11T08:53:27.941Z,36.08
2019-01-11T08:55:55.369Z,37.67
2019-01-11T08:58:22.677Z,38.38
2019-01-11T09:00:49.917Z,37.25
2019-01-11T09:03:17.110Z,37.42
2019-01-11T09:05:44.326Z,40.40
2019-01-11T09:08:11.518Z,37.30
2019-01-11T09:10:38.831Z,36.60
2019-01-11T09:13:06.083Z,37.48
2019-01-11T09:15:33.437Z,37.25
2019-01-11T09:18:11.568Z,38.30
2019-01-11T09:20:38.928Z,35.60
2019-01-11T09:23:06.297Z,35.98
2019-01-11T09:25:33.575Z,34.73
2019-01-11T09:28:00.895Z,33.30
2019-01-11T09:30:28.233Z,34.03
2019-01-11T09:32:55.545Z,32.83
2019-01-11T09:35:23.259Z,32.67
2019-01-11T09:37:50.569Z,31.52
2019-01-11T09:40:17.909Z,32.60
2019-01-11T09:42:45.267Z,29.90
2019-01-11T09:45:12.567Z,30.70
2019-01-11T09:47:39.869Z,29.30
2019-01-11T09:50:07.719Z,26.45
2019-01-11T09:52:35.033Z,27.65
2019-01-11T09:55:02.364Z,26.57
2019-01-11T09:57:29.801Z,25.97
2019-01-11T09:59:57.209Z,26.42
2019-01-11T10:02:52.940Z,26.65
2019-01-11T10:05:20.285Z,25.40
2019-01-11T10:07:47.724Z,25.45
2019-01-11T10:10:15.136Z,25.85
2019-01-11T10:12:42.534Z,24.52
2019-01-11T10:15:10.669Z,25.02
2019-01-11T10:17:38.007Z,25.15
2019-01-11T10:20:06.602Z,24.32
2019-01-11T10:22:33.908Z,23.73
2019-01-11T10:25:01.309Z,24.82
2019-01-11T10:27:28.520Z,24.27
2019-01-11T10:29:55.957Z,23.40
2019-01-11T10:32:23.160Z,24.72
2019-01-11T10:34:50.527Z,24.52
2019-01-11T10:37:17.820Z,24.05
2019-01-11T10:39:45.123Z,24.57
2019-01-11T10:42:13.891Z,25.70
2019-01-11T10:44:41.239Z,25.45
2019-01-11T10:47:08.422Z,25.43
2019-01-11T10:49:35.764Z,27.42
2019-01-11T10:52:03.060Z,25.10
2019-01-11T10:54:41.214Z,25.82
2019-01-11T10:57:08.417Z,25.20
2019-01-11T10:59:35.698Z,24.02
2019-01-11T11:02:03.097Z,24.67
2019-01-11T11:04:30.328Z,24.18
2019-01-11T11:06:57.684Z,23.90
2019-01-11T11:09:25.109Z,24.18
2019-01-11T11:11:52.712Z,24.00
2019-01-11T11:14:20.069Z,24.27
2019-01-11T11:16:47.484Z,23.47
2019-01-11T11:19:14.761Z,23.02
2019-01-11T11:21:41.975Z,23.15
2019-01-11T11:24:09.409Z,22.90
2019-01-11T11:26:36.603Z,22.42
2019-01-11T11:29:03.933Z,21.95
2019-01-11T11:31:31.160Z,22.32
2019-01-11T11:33:58.478Z,23.40
2019-01-11T11:36:25.722Z,24.18
2019-01-11T11:38:53.057Z,23.65
2019-01-11T11:41:20.329Z,23.60
2019-01-11T11:43:47.697Z,23.80
2019-01-11T11:46:15.065Z,23.05
2019-01-11T11:48:42.417Z,25.02
2019-01-11T11:51:09.757Z,23.85
2019-01-11T11:53:37.065Z,24.27
2019-01-11T11:56:04.441Z,23.42
2019-01-11T11:58:34.131Z,22.98
2019-01-11T12:01:01.413Z,21.30
2019-01-11T12:03:30.019Z,21.62
2019-01-11T12:05:57.272Z,22.10
2019-01-11T12:08:24.582Z,22.70
2019-01-11T12:10:51.859Z,22.93
2019-01-11T12:13:19.139Z,22.52
2019-01-11T12:15:46.588Z,21.97
2019-01-11T12:18:13.908Z,23.40
2019-01-11T12:20:41.284Z,23.83
2019-01-11T12:23:08.637Z,22.58
2019-01-11T12:25:35.958Z,23.40
2019-01-11T12:28:03.455Z,23.07
2019-01-11T12:30:30.816Z,22.17
2019-01-11T12:32:58.129Z,23.10
2019-01-11T12:35:25.504Z,22.95
2019-01-11T12:37:52.727Z,23.18
2019-01-11T12:40:20.182Z,23.90
2019-01-11T12:42:47.621Z,23.92
2019-01-11T12:45:15.175Z,23.40
2019-01-11T12:47:42.704Z,22.30
2019-01-11T12:50:18.438Z,23.52
2019-01-11T12:52:45.857Z,22.85
2019-01-11T12:55:13.164Z,23.07
2019-01-11T12:57:40.397Z,23.60
2019-01-11T13:00:10.060Z,25.02
2019-01-11T13:02:37.394Z,22.95
2019-01-11T13:05:06.030Z,23.50
2019-01-11T13:07:33.367Z,24.60
2019-01-11T13:10:00.782Z,22.75
2019-01-11T13:12:28.028Z,23.83
2019-01-11T13:14:55.509Z,24.50
2019-01-11T13:17:22.934Z,23.85
2019-01-11T13:19:50.275Z,24.82
2019-01-11T13:22:17.617Z,25.27
2019-01-11T13:24:44.950Z,26.70
2019-01-11T13:27:12.193Z,25.30
2019-01-11T13:29:39.559Z,26.97
2019-01-11T13:32:09.921Z,28.25
2019-01-11T13:34:37.239Z,26.17
2019-01-11T13:37:04.459Z,27.55
2019-01-11T13:39:31.809Z,28.85
2019-01-11T13:41:59.126Z,29.77
2019-01-11T13:44:26.353Z,30.72
2019-01-11T13:46:53.673Z,29.72
2019-01-11T13:49:21.090Z,29.98
2019-01-11T13:51:48.404Z,30.55
2019-01-11T13:54:15.739Z,29.67
2019-01-11T13:56:43.094Z,31.30
2019-01-11T13:59:10.508Z,31.70
2019-01-11T14:01:37.833Z,30.17
2019-01-11T14:04:05.182Z,32.05
2019-01-11T14:06:32.552Z,31.97
2019-01-11T14:08:59.864Z,29.27
2019-01-11T14:11:27.213Z,28.52
2019-01-11T14:13:54.584Z,28.77
2019-01-11T14:16:21.840Z,28.42
2019-01-11T14:18:49.067Z,25.80
2019-01-11T14:21:16.292Z,28.70
2019-01-11T14:23:43.681Z,30.43
2019-01-11T14:26:11.072Z,29.10
2019-01-11T14:28:38.472Z,25.85
2019-01-11T14:31:05.804Z,26.50
2019-01-11T14:33:33.092Z,24.75
2019-01-11T14:36:00.332Z,26.02
2019-01-11T14:38:27.657Z,25.40
2019-01-11T14:40:55.135Z,26.48
2019-01-11T14:43:22.365Z,26.35
2019-01-11T14:45:49.664Z,26.37
2019-01-11T14:48:17.040Z,26.85
2019-01-11T14:50:44.516Z,25.48
2019-01-11T14:53:11.828Z,26.42
2019-01-11T14:55:39.085Z,25.92
2019-01-11T14:58:06.430Z,25.95
2019-01-11T15:00:33.803Z,25.43
2019-01-11T15:03:01.133Z,26.62
2019-01-11T15:05:28.438Z,26.25
2019-01-11T15:07:55.785Z,26.62
2019-01-11T15:10:23.053Z,28.00
2019-01-11T15:12:50.403Z,30.12
2019-01-11T15:15:17.785Z,28.57
2019-01-11T15:17:45.189Z,29.87
2019-01-11T15:20:16.944Z,28.85
2019-01-11T15:22:44.449Z,27.87
2019-01-11T15:25:11.837Z,29.87
2019-01-11T15:27:39.093Z,29.40
2019-01-11T15:30:12.553Z,29.63
2019-01-11T15:32:39.913Z,29.77
2019-01-11T15:35:07.483Z,30.72
2019-01-11T15:37:34.826Z,31.35
2019-01-11T15:40:03.011Z,31.48
2019-01-11T15:42:30.458Z,29.42
2019-01-11T15:44:57.803Z,30.75
2019-01-11T15:47:25.130Z,31.60
2019-01-11T15:49:52.497Z,30.82
2019-01-11T15:52:19.838Z,30.88
2019-01-11T15:54:47.173Z,31.30
2019-01-11T15:57:16.309Z,31.07
2019-01-11T16:00:00.574Z,30.25
2019-01-11T16:02:27.934Z,30.88
2019-01-11T16:04:58.446Z,31.93
2019-01-11T16:07:25.691Z,31.12
2019-01-11T16:10:03.523Z,30.23
2019-01-11T16:12:48.100Z,28.77
2019-01-11T16:15:50.745Z,28.07
2019-01-11T16:18:24.148Z,28.55
2019-01-11T16:20:51.491Z,27.05
2019-01-11T16:23:18.701Z,26.93
2019-01-11T16:25:45.945Z,26.42
2019-01-11T16:28:13.597Z,27.48
2019-01-11T16:30:40.897Z,28.65
2019-01-11T16:33:08.227Z,26.87
2019-01-11T16:35:35.481Z,29.50
2019-01-11T16:38:03.043Z,30.85
2019-01-11T16:40:30.402Z,30.12
2019-01-11T16:42:57.765Z,30.40
2019-01-11T16:45:25.233Z,32.17
2019-01-11T16:47:52.678Z,30.77
2019-01-11T16:50:20.013Z,27.25
2019-01-11T16:52:47.402Z,30.23
2019-01-11T16:55:14.732Z,28.85
2019-01-11T16:57:41.964Z,26.13
2019-01-11T17:00:12.924Z,24.27
2019-01-11T17:02:40.344Z,23.98
2019-01-11T17:05:07.874Z,21.10
2019-01-11T17:07:35.215Z,19.73
2019-01-11T17:10:03.572Z,18.00
2019-01-11T17:12:30.806Z,19.27
2019-01-11T17:14:58.180Z,18.37
2019-01-11T17:17:27.772Z,16.13
2019-01-11T17:19:55.110Z,15.00
2019-01-11T17:22:22.414Z,15.70
2019-01-11T17:24:49.888Z,15.43
2019-01-11T17:27:17.153Z,16.00
2019-01-11T17:29:47.267Z,16.60
2019-01-11T17:32:13.988Z,16.23
2019-01-11T17:34:41.326Z,15.57
2019-01-11T17:37:08.641Z,16.37
2019-01-11T17:39:35.908Z,16.00
2019-01-11T17:42:03.642Z,16.27
2019-01-11T17:44:30.953Z,16.63
2019-01-11T17:46:58.393Z,15.07
2019-01-11T17:49:25.685Z,14.37
2019-01-11T17:51:52.923Z,15.83
2019-01-11T17:54:20.261Z,14.53
2019-01-11T17:56:47.572Z,14.03
2019-01-11T17:59:14.800Z,14.70
2019-01-11T18:01:42.166Z,14.17
2019-01-11T18:04:09.570Z,14.03
2019-01-11T18:06:36.805Z,15.30
2019-01-11T18:09:06.189Z,14.07
2019-01-11T18:11:33.545Z,13.13
2019-01-11T18:14:01.005Z,13.68
2019-01-11T18:16:28.326Z,13.53
2019-01-11T18:18:55.657Z,12.77
2019-01-11T18:21:24.995Z,12.67
2019-01-11T18:23:52.344Z,11.28
2019-01-11T18:26:19.677Z,10.83
2019-01-11T18:28:47.051Z,11.85
2019-01-11T18:31:15.624Z,11.63
2019-01-11T18:33:43.153Z,12.60
2019-01-11T18:36:10.528Z,12.53
2019-01-11T18:38:37.879Z,11.80
2019-01-11T18:41:05.197Z,11.70
2019-01-11T18:43:32.554Z,13.67
2019-01-11T18:45:59.875Z,13.33
2019-01-11T18:48:27.275Z,12.93
2019-01-11T18:50:54.475Z,15.03
2019-01-11T18:53:21.837Z,14.93
2019-01-11T18:55:49.057Z,16.07
2019-01-11T18:58:16.277Z,15.70
2019-01-11T19:00:43.591Z,16.60
2019-01-11T19:03:10.857Z,14.75
2019-01-11T19:05:38.078Z,15.57
2019-01-11T19:08:05.451Z,16.47
2019-01-11T19:10:34.953Z,17.00
2019-01-11T19:13:02.301Z,15.53
2019-01-11T19:15:29.577Z,17.97
2019-01-11T19:17:57.015Z,18.07
2019-01-11T19:20:26.553Z,18.02
2019-01-11T19:22:53.916Z,17.17
2019-01-11T19:25:21.557Z,17.87
2019-01-11T19:27:49.199Z,17.75
2019-01-11T19:30:18.827Z,17.02
2019-01-11T19:32:46.211Z,16.13
2019-01-11T19:35:13.601Z,17.05
2019-01-11T19:37:40.931Z,15.83
2019-01-11T19:40:08.297Z,16.55
2019-01-11T19:42:35.686Z,16.75
2019-01-11T19:45:04.030Z,16.87
2019-01-11T19:47:31.373Z,17.00
2019-01-11T19:49:58.980Z,16.47
2019-01-11T19:52:27.437Z,17.87
2019-01-11T19:54:54.828Z,18.03
2019-01-11T19:57:22.253Z,16.87
2019-01-11T19:59:49.592Z,17.63
2019-01-11T20:02:16.962Z,16.87
2019-01-11T20:04:44.293Z,17.57
2019-01-11T20:07:11.665Z,17.20
2019-01-11T20:09:39.088Z,17.00
2019-01-11T20:12:06.757Z,14.20
2019-01-11T20:14:34.100Z,16.73
2019-01-11T20:17:01.463Z,16.33
2019-01-11T20:19:28.878Z,15.83
2019-01-11T20:21:56.254Z,14.63
2019-01-11T20:24:23.616Z,14.43
2019-01-11T20:26:51.002Z,14.63
2019-01-11T20:29:18.323Z,13.93
2019-01-11T20:31:45.694Z,13.60
2019-01-11T20:34:13.064Z,14.13
2019-01-11T20:36:49.370Z,12.67
2019-01-11T20:39:16.609Z,12.17
2019-01-11T20:41:43.962Z,13.20
2019-01-11T20:44:11.323Z,10.83
2019-01-11T20:46:40.512Z,12.28
2019-01-11T20:49:08.015Z,12.80
2019-01-11T20:51:35.468Z,12.40
2019-01-11T20:54:02.839Z,13.20
2019-01-11T20:56:32.758Z,11.80
2019-01-11T20:59:00.217Z,12.73
2019-01-11T21:01:27.592Z,12.60
2019-01-11T21:03:54.940Z,12.83
2019-01-11T21:06:22.227Z,13.23
2019-01-11T21:08:49.602Z,13.37
2019-01-11T21:11:17.026Z,13.60
2019-01-11T21:13:44.399Z,14.58
2019-01-11T21:16:11.753Z,12.87
2019-01-11T21:18:39.095Z,13.70
2019-01-11T21:21:06.469Z,13.70
2019-01-11T21:23:33.785Z,12.90
2019-01-11T21:26:01.160Z,13.58
2019-01-11T21:28:28.575Z,12.83
2019-01-11T21:30:57.501Z,12.90
2019-01-11T21:33:25.057Z,12.73
2019-01-11T21:35:52.461Z,12.93
2019-01-11T21:38:19.877Z,11.75
2019-01-11T21:40:47.227Z,12.23
2019-01-11T21:43:14.482Z,12.87
2019-01-11T21:45:41.915Z,12.73
2019-01-11T21:48:09.268Z,12.30
2019-01-11T21:50:36.512Z,12.77
2019-01-11T21:53:04.001Z,13.03
2019-01-11T21:55:31.243Z,13.08
2019-01-11T21:57:58.642Z,12.80
2019-01-11T22:00:31.637Z,13.33
2019-01-11T22:02:59.191Z,15.03
2019-01-11T22:05:26.571Z,14.67
2019-01-11T22:07:53.964Z,14.30
2019-01-11T22:10:21.413Z,14.80
2019-01-11T22:12:48.803Z,13.72
2019-01-11T22:15:16.474Z,14.13
2019-01-11T22:17:43.910Z,13.50
2019-01-11T22:20:12.197Z,13.00
2019-01-11T22:22:39.532Z,15.53
2019-01-11T22:25:07.843Z,15.48
2019-01-11T22:27:35.181Z,16.87
2019-01-11T22:30:03.553Z,15.70
2019-01-11T22:32:30.891Z,16.27
2019-01-11T22:34:58.241Z,16.75
2019-01-11T22:37:25.631Z,17.25
2019-01-11T22:39:52.996Z,16.53
2019-01-11T22:42:20.338Z,15.40
2019-01-11T22:44:47.702Z,16.37
2019-01-11T22:47:15.248Z,15.33
2019-01-11T22:49:42.701Z,16.20
2019-01-11T22:52:10.043Z,11.53
2019-01-11T22:54:37.413Z,15.07
2019-01-11T22:57:04.895Z,14.40
2019-01-11T22:59:32.227Z,14.23
2019-01-11T23:02:37.265Z,14.13
2019-01-11T23:05:10.511Z,13.93
2019-01-11T23:07:58.936Z,14.17
2019-01-11T23:11:16.839Z,14.57
2019-01-11T23:13:44.205Z,14.00
2019-01-11T23:16:29.084Z,13.80
2019-01-11T23:18:57.004Z,12.47
2019-01-11T23:21:24.679Z,12.90
2019-01-11T23:23:54.947Z,11.60
2019-01-11T23:26:23.353Z,11.90
2019-01-11T23:28:51.469Z,11.90
2019-01-11T23:31:22.247Z,11.23
2019-01-11T23:33:50.856Z,11.70
2019-01-11T23:36:18.808Z,11.22
2019-01-11T23:38:46.295Z,11.57
2019-01-11T23:41:13.858Z,11.15
2019-01-11T23:43:41.232Z,12.47
2019-01-11T23:46:08.541Z,11.90
2019-01-11T23:48:35.784Z,11.53
2019-01-11T23:51:03.104Z,10.30
2019-01-11T23:53:30.464Z,10.55
2019-01-11T23:56:00.122Z,8.10
2019-01-11T23:58:27.492Z,9.60
